Col Jabara, KS

2:37 AM CDT on October 26, 2014 (GMT -0500)
McConnell Air Force Base | Change Station
CLOSE
Current Station
Airport
Location: McConnell AFB,
Elevation: 1371 ft
Nearby Weather Stations

Elev 1371 ft 37.62 °N, 97.27 °W | Updated 39 minutes ago

Clear
Clear
64 °F
Feels Like 64 °F
N
6
Wind Variable Wind from SSE

Today
High -- | Low -- °F
--% Chance of Precip.
Yesterday
High -- | Low -- °F
Precip. -- in
7:48 AM 6:37 PM
Waxing Crescent, 6% visible
Pressure 29.91 in
Visibility 10.0 miles
Clouds Clear
Dew Point 60 °F
Humidity 89%
Rainfall 0.00 in
Snow Depth Not available.
UV 0 out of 12
Pollen 3.30 out of 12
Air Quality Not available.
Flu Activity No Activity
METAR KIAB 260658Z AUTO 15005KT 10SM CLR 18/16 A2994 RMK AO2 SLP128 T01760157

More Conditions Fewer Conditions

Pressure 29.91 in
Visibility 10.0 miles
Clouds Clear
Dew Point 60 °F
Humidity 89%
Rainfall 0.00 in
Snow Depth Not available.
UV 0 out of 12
Pollen 3.30 out of 12
Air Quality Not available.
Flu Activity No Activity
METAR KIAB 260658Z AUTO 15005KT 10SM CLR 18/16 A2994 RMK AO2 SLP128 T01760157

More Conditions Fewer Conditions

10-Day Weather Forecast

Almanac

Astronomy

Oct. 26, 2014 Rise Set
Actual Time 7:48 AM CDT 6:37 PM CDT
Civil Twilight 7:21 AM CDT 7:03 PM CDT
Nautical Twilight 6:50 AM CDT 7:34 PM CDT
Astronomical Twilight 6:19 AM CDT 8:05 PM CDT
Moon 10:25 AM CDT 8:51 PM CDT
Length of Visible Light 11h 42m
Length of Day
10h 49m
Tomorrow will be 2m 13s shorter.
Waxing Crescent, 6% of the Moon is Illuminated
Today
Waxing Crescent
Oct 30
First Quarter
Nov 6
Full
Nov 14
Last Quarter
Nov 22
New

Today's Extremes

State Highs State Lows

Community

WunderPhotos

Upload Photos

1,765,115 photos uploaded!

Nearby

Snow Depth

Station Depth Elevation
No new snow has been reported.

Earthquake Activity

City Distance Mag. Time & Date
Mooreland, Oklahoma 129 miles 2.9 3:21 PM CDT
2014-10-25
Langston, Oklahoma 129 miles 3.0 7:36 AM CDT
2014-10-25
Pawnee, Oklahoma 96 miles 2.6 7:24 PM CDT
2014-10-24
Mooreland, Oklahoma 137 miles 2.5 2:43 PM CDT
2014-10-24
Minimum magnitude displayed is 2.5.

Coastal Water Temperatures

Place Temperature
No Stations Reporting

Nearby Weather Stations